フィレンツェ の空港の天気 - METARとTAF

フィレンツェ・ペレトラ空港 ( LIRQ / FLR ) - イタリア フィレンツェ
飛行場実況気象(Metar)
観測時間01/20 03:50 CET (01/20 02:50 UTC)
風向・風速不定 1m/s
視程10km以上
天気現象
全天の8割程度の雲 雲底高度 1070m
気温5℃
湿度81%
気圧1013hPa
METARLIRQ 200250Z VRB01KT 9999 BKN035 05/02 Q1013
過去の天気等 Google飛行場航空写真 Wunderground天気予報

過去48時間のMETAR

飛行場予報(TAF)
発表時間: 1/20 00:00 CET (1/19 23:00 UTC)
予報対象時間: 20日1時 CET ~ 21日1時 CET
風向・風速不定 3m/s
視程10km以上
全天の4割程度の雲 雲底高度 1220m
20日4時 CET ~ 20日9時 CET に一時的に
視程4000m
天気現象
TAF LIRQ 192300Z 2000/2024 VRB05KT 9999 SCT040
TEMPO 2003/2008 4000 RA